Time;durP1;ratioP1;P1;durP2;ratioP2;P2;SDS_P1;SDS_P2;PMS_P1;PMS_P2;Temp;Humidity;BMP_temperature;BMP_pressure;BME280_temperature;BME280_humidity;BME280_pressure;Samples;Min_cycle;Max_cycle;Signal;HPM_P1;HPM_P2
2022/08/18 00:02:24;;;;;;;49.00;40.42;;;;;;;18.35;100.00;101211.47;5101320;28;20059;-58
2022/08/18 00:04:50;;;;;;;47.58;40.67;;;;;;;18.37;100.00;101222.00;5110144;28;20035;-57
2022/08/18 00:07:22;;;;;;;45.20;39.25;;;;;;;18.35;100.00;101227.56;5104211;28;20039;-57
2022/08/18 00:09:48;;;;;;;47.90;39.92;;;;;;;18.35;100.00;101222.19;5117854;27;20135;-59
2022/08/18 00:12:29;;;;;;;46.63;38.97;;;;;;;18.37;100.00;101230.91;5106007;28;20114;-58
2022/08/18 00:14:55;;;;;;;46.22;39.70;;;;;;;18.40;100.00;101233.16;5110570;28;20043;-61
2022/08/18 00:17:22;;;;;;;45.25;40.15;;;;;;;18.37;100.00;101233.59;5110855;28;20031;-58
2022/08/18 00:19:47;;;;;;;50.60;40.97;;;;;;;18.38;100.00;101227.19;5108014;27;20047;-61
2022/08/18 00:22:15;;;;;;;46.35;40.10;;;;;;;18.40;100.00;101224.25;5103196;28;20036;-57
2022/08/18 00:24:43;;;;;;;49.45;40.78;;;;;;;18.39;100.00;101226.13;5110571;28;20031;-58
2022/08/18 00:27:09;;;;;;;46.60;39.90;;;;;;;18.44;100.00;101238.13;5111281;28;20404;-60
2022/08/18 00:29:35;;;;;;;47.60;40.13;;;;;;;18.42;100.00;101239.16;5109187;27;20111;-58
2022/08/18 00:32:11;;;;;;;47.10;38.38;;;;;;;18.42;100.00;101244.50;5110870;27;20139;-61
2022/08/18 00:34:36;;;;;;;48.40;39.90;;;;;;;18.41;100.00;101248.22;5102655;28;20043;-57
2022/08/18 00:37:02;;;;;;;48.78;40.85;;;;;;;18.46;100.00;101246.81;5111023;28;20725;-57
2022/08/18 00:39:29;;;;;;;47.67;40.05;;;;;;;18.40;100.00;101241.22;5107395;27;20063;-61
2022/08/18 00:41:55;;;;;;;46.72;41.05;;;;;;;18.40;100.00;101243.91;5111163;27;20036;-57
2022/08/18 00:44:20;;;;;;;50.92;41.70;;;;;;;18.36;100.00;101245.31;5109569;28;20093;-60
2022/08/18 00:46:45;;;;;;;47.50;39.97;;;;;;;18.36;100.00;101256.06;5107209;28;20043;-58
2022/08/18 00:49:10;;;;;;;51.97;41.75;;;;;;;18.36;100.00;101266.81;5111197;27;20073;-58
2022/08/18 00:51:43;;;;;;;48.40;41.08;;;;;;;18.40;100.00;101254.63;5108427;28;20045;-57
2022/08/18 00:54:21;;;;;;;48.40;41.10;;;;;;;18.40;100.00;101251.97;5111155;28;20088;-57
2022/08/18 00:56:50;;;;;;;49.15;39.05;;;;;;;18.38;100.00;101250.50;5097826;28;20108;-58
2022/08/18 00:59:42;;;;;;;42.53;37.92;;;;;;;18.36;100.00;101245.31;5106910;27;20110;-58
2022/08/18 01:02:16;;;;;;;41.92;36.30;;;;;;;18.34;100.00;101247.41;5090037;28;20027;-62
2022/08/18 01:04:47;;;;;;;45.97;37.85;;;;;;;18.28;100.00;101248.22;5092363;28;20032;-59
2022/08/18 01:07:39;;;;;;;44.38;37.45;;;;;;;18.29;100.00;101249.88;5103550;28;20031;-58
2022/08/18 01:10:05;;;;;;;41.65;35.78;;;;;;;18.24;100.00;101255.00;5111383;27;20601;-61
2022/08/18 01:12:31;;;;;;;43.00;36.35;;;;;;;18.21;100.00;101250.88;5111753;27;20144;-58
2022/08/18 01:14:58;;;;;;;42.22;35.53;;;;;;;18.22;100.00;101240.97;5106794;28;20034;-60
2022/08/18 01:23:03;;;;;;;43.15;36.40;;;;;;;18.08;100.00;101237.41;5095316;28;20058;-61
2022/08/18 01:28:16;;;;;;;43.90;36.90;;;;;;;18.01;100.00;101237.38;5107132;28;20054;-58
2022/08/18 01:30:54;;;;;;;44.03;36.80;;;;;;;18.02;100.00;101236.34;5101530;27;20024;-57
2022/08/18 01:33:20;;;;;;;48.30;38.10;;;;;;;17.99;100.00;101236.75;5102883;28;20055;-60
2022/08/18 01:35:48;;;;;;;50.33;37.35;;;;;;;17.92;100.00;101239.41;5105691;28;20480;-57
2022/08/18 01:38:15;;;;;;;50.63;36.75;;;;;;;17.83;100.00;101238.78;5106688;28;20023;-56
2022/08/18 01:40:41;;;;;;;45.65;36.35;;;;;;;17.84;100.00;101243.09;5103726;27;20039;-58
2022/08/18 01:43:07;;;;;;;43.03;36.58;;;;;;;17.83;100.00;101241.44;5107628;28;20027;-58
2022/08/18 01:45:32;;;;;;;44.22;37.40;;;;;;;17.80;100.00;101236.47;5089292;28;20105;-58
2022/08/18 01:47:58;;;;;;;44.42;36.45;;;;;;;17.76;100.00;101235.19;5100087;28;20043;-58
2022/08/18 01:50:24;;;;;;;43.22;37.17;;;;;;;17.74;100.00;101242.63;5085571;28;20028;-58
2022/08/18 01:52:52;;;;;;;45.55;37.05;;;;;;;17.73;100.00;101238.31;5098488;28;20127;-57
2022/08/18 01:55:18;;;;;;;42.92;36.33;;;;;;;17.75;100.00;101230.88;5105912;28;20027;-59
2022/08/18 01:57:44;;;;;;;44.85;36.85;;;;;;;17.73;100.00;101223.03;5105751;28;20087;-60
2022/08/18 02:00:16;;;;;;;45.15;37.15;;;;;;;17.69;100.00;101218.25;5105978;27;20035;-59
2022/08/18 02:02:42;;;;;;;42.53;35.95;;;;;;;17.71;100.00;101232.31;5097599;28;20027;-57
2022/08/18 02:05:21;;;;;;;41.65;35.65;;;;;;;17.75;100.00;101236.25;5103914;28;20476;-57
2022/08/18 02:07:46;;;;;;;41.78;34.67;;;;;;;17.78;100.00;101219.75;5105520;28;21692;-57
2022/08/18 02:10:12;;;;;;;43.97;36.08;;;;;;;17.77;100.00;101217.28;5104904;27;20073;-58
2022/08/18 02:12:40;;;;;;;42.95;34.63;;;;;;;17.78;100.00;101222.44;5104151;28;20059;-57
2022/08/18 02:15:06;;;;;;;43.58;34.42;;;;;;;17.78;100.00;101227.81;5105120;28;20391;-59
2022/08/18 02:17:43;;;;;;;40.25;33.83;;;;;;;17.77;100.00;101226.16;5096059;28;20028;-58
2022/08/18 02:20:11;;;;;;;40.55;33.67;;;;;;;17.78;100.00;101226.97;5102315;27;20031;-58
2022/08/18 02:22:37;;;;;;;41.30;34.55;;;;;;;17.76;100.00;101229.84;5104117;28;20027;-60
2022/08/18 02:25:03;;;;;;;45.65;35.42;;;;;;;17.75;100.00;101229.03;5098455;28;20034;-57
2022/08/18 02:27:28;;;;;;;42.13;34.15;;;;;;;17.74;100.00;101234.59;5105415;28;20028;-57
2022/08/18 02:29:54;;;;;;;39.78;32.72;;;;;;;17.70;100.00;101236.00;5109403;27;20768;-59
2022/08/18 02:32:19;;;;;;;38.72;32.80;;;;;;;17.65;100.00;101244.66;5097642;28;20051;-58
2022/08/18 02:34:44;;;;;;;38.40;33.05;;;;;;;17.64;100.00;101232.28;5103886;28;20044;-57
2022/08/18 02:37:10;;;;;;;39.70;32.90;;;;;;;17.61;100.00;101240.72;5101130;28;20031;-57
2022/08/18 02:39:36;;;;;;;37.05;30.67;;;;;;;17.65;100.00;101243.84;5105026;27;20042;-59
2022/08/18 02:42:04;;;;;;;35.55;31.52;;;;;;;17.65;100.00;101238.47;5099511;28;20027;-61
2022/08/18 02:44:30;;;;;;;36.38;31.45;;;;;;;17.61;100.00;101249.59;5103304;28;20024;-58
2022/08/18 02:46:56;;;;;;;38.75;32.65;;;;;;;17.56;100.00;101256.59;5099562;28;20404;-57
2022/08/18 02:49:21;;;;;;;35.03;30.23;;;;;;;17.61;100.00;101254.13;5103169;27;20042;-59
2022/08/18 02:51:47;;;;;;;38.80;31.67;;;;;;;17.56;100.00;101254.72;5106551;27;20180;-58
2022/08/18 02:54:12;;;;;;;41.20;31.38;;;;;;;17.57;100.00;101258.25;5101217;28;20954;-61
2022/08/18 02:56:37;;;;;;;37.20;31.63;;;;;;;17.53;100.00;101255.13;5098568;28;20031;-58
2022/08/18 02:59:06;;;;;;;37.10;31.23;;;;;;;17.51;100.00;101249.13;5095013;28;20107;-59
2022/08/18 03:01:36;;;;;;;36.53;31.35;;;;;;;17.49;100.00;101237.78;5102606;27;20047;-57
2022/08/18 03:04:01;;;;;;;34.60;30.15;;;;;;;17.52;100.00;101240.03;5104400;28;20060;-57
2022/08/18 03:06:28;;;;;;;35.88;31.25;;;;;;;17.46;100.00;101246.19;5098546;28;20611;-58
2022/08/18 03:08:54;;;;;;;37.75;31.80;;;;;;;17.38;100.00;101249.88;5103006;28;20159;-59
2022/08/18 03:11:23;;;;;;;35.33;30.40;;;;;;;17.39;100.00;101239.97;5102468;28;20031;-57
2022/08/18 03:13:49;;;;;;;36.22;30.23;;;;;;;17.38;100.00;101233.81;5089749;28;20035;-61
2022/08/18 03:16:15;;;;;;;36.58;30.75;;;;;;;17.31;100.00;101244.47;5101756;28;20490;-58
2022/08/18 03:18:42;;;;;;;36.60;29.75;;;;;;;17.37;100.00;101245.53;5094768;28;20160;-57
2022/08/18 03:21:08;;;;;;;36.38;30.33;;;;;;;17.36;100.00;101251.09;5109211;27;20127;-59
2022/08/18 03:23:35;;;;;;;33.42;29.33;;;;;;;17.31;100.00;101259.72;5104021;28;20088;-58
2022/08/18 03:26:00;;;;;;;36.20;30.10;;;;;;;17.33;100.00;101258.50;5094711;28;20115;-58
2022/08/18 03:28:26;;;;;;;34.53;30.38;;;;;;;17.33;100.00;101258.50;5102819;28;20123;-58
2022/08/18 03:30:51;;;;;;;35.75;30.48;;;;;;;17.35;100.00;101266.34;5107555;27;20106;-57
2022/08/18 03:33:16;;;;;;;33.80;29.73;;;;;;;17.34;100.00;101260.19;5097481;28;20035;-58
2022/08/18 03:35:41;;;;;;;36.40;31.55;;;;;;;17.30;100.00;101258.91;5102332;28;20027;-57
2022/08/18 03:38:07;;;;;;;37.50;31.38;;;;;;;17.31;100.00;101263.22;5101602;28;20041;-58
2022/08/18 03:40:32;;;;;;;35.00;30.23;;;;;;;17.28;100.00;101260.97;5097039;28;20598;-57
2022/08/18 03:42:58;;;;;;;35.92;30.17;;;;;;;17.31;100.00;101265.06;5085777;28;20032;-58
2022/08/18 03:45:26;;;;;;;34.20;29.10;;;;;;;17.33;100.00;101269.22;5091041;28;20540;-59
2022/08/18 03:47:51;;;;;;;33.60;29.63;;;;;;;17.30;100.00;101269.63;5098875;28;20077;-57
2022/08/18 03:50:18;;;;;;;36.47;30.58;;;;;;;17.27;100.00;101263.84;5098807;28;20028;-59
2022/08/18 03:52:47;;;;;;;34.80;30.75;;;;;;;17.28;100.00;101263.66;5096554;28;20023;-59
2022/08/18 03:55:13;;;;;;;37.17;31.17;;;;;;;17.30;100.00;101264.25;5100874;28;20024;-60
2022/08/18 03:57:38;;;;;;;36.55;29.88;;;;;;;17.32;100.00;101272.94;5101072;28;20028;-58
2022/08/18 04:00:05;;;;;;;34.90;29.52;;;;;;;17.27;100.00;101264.63;5100389;28;20551;-59
2022/08/18 04:02:30;;;;;;;34.25;28.08;;;;;;;17.23;100.00;101260.72;5102405;28;20380;-58
2022/08/18 04:04:55;;;;;;;31.42;27.42;;;;;;;17.20;100.00;101256.56;5103941;28;20031;-57
2022/08/18 04:07:20;;;;;;;32.95;27.17;;;;;;;17.22;100.00;101261.72;5102338;28;20123;-61
2022/08/18 04:09:46;;;;;;;32.97;26.98;;;;;;;17.17;100.00;101264.19;5104340;28;20043;-57
2022/08/18 04:12:14;;;;;;;29.77;25.58;;;;;;;17.12;100.00;101266.59;5098921;28;20036;-58
2022/08/18 04:14:41;;;;;;;33.40;27.20;;;;;;;17.12;100.00;101251.34;5103182;28;20039;-59
2022/08/18 04:17:08;;;;;;;33.63;29.05;;;;;;;17.13;100.00;101249.50;5100058;28;20461;-60
2022/08/18 04:19:34;;;;;;;35.60;29.52;;;;;;;17.18;100.00;101255.91;5102693;28;20027;-57
2022/08/18 04:22:02;;;;;;;41.97;32.88;;;;;;;17.10;100.00;101260.59;5084305;28;20031;-58
2022/08/18 04:24:29;;;;;;;46.90;36.22;;;;;;;17.12;100.00;101263.94;5102904;28;20035;-61
2022/08/18 04:26:56;;;;;;;43.55;34.97;;;;;;;17.18;100.00;101260.47;5095422;28;20039;-56
2022/08/18 04:29:21;;;;;;;46.83;36.33;;;;;;;17.21;100.00;101266.25;5091404;28;20507;-58
2022/08/18 04:31:47;;;;;;;44.17;36.75;;;;;;;17.21;100.00;101265.44;5102561;28;20043;-60
2022/08/18 04:34:13;;;;;;;44.22;36.20;;;;;;;17.25;100.00;101255.97;5105251;28;20039;-61
2022/08/18 04:36:40;;;;;;;48.25;38.53;;;;;;;17.23;100.00;101262.56;5104792;28;20036;-61
2022/08/18 04:39:07;;;;;;;45.80;37.67;;;;;;;17.21;100.00;101260.06;5089775;28;20059;-59
2022/08/18 04:41:33;;;;;;;47.80;37.67;;;;;;;17.24;100.00;101264.22;5113178;27;20103;-57
2022/08/18 04:44:02;;;;;;;48.33;38.38;;;;;;;17.20;100.00;101274.50;5104912;28;20761;-58
2022/08/18 04:46:29;;;;;;;47.72;38.92;;;;;;;17.22;100.00;101272.44;5106642;28;20048;-60
2022/08/18 04:48:57;;;;;;;51.40;38.78;;;;;;;17.21;100.00;101273.47;5098666;28;20512;-61
2022/08/18 04:51:24;;;;;;;47.88;38.13;;;;;;;17.21;100.00;101282.34;5101927;27;20031;-57
2022/08/18 04:53:50;;;;;;;51.15;37.85;;;;;;;17.20;100.00;101285.22;5108068;28;20096;-57
2022/08/18 04:56:26;;;;;;;49.00;39.15;;;;;;;17.15;100.00;101287.66;5101787;28;20429;-57
2022/08/18 04:59:10;;;;;;;49.00;37.45;;;;;;;17.15;100.00;101283.13;5103943;28;20088;-58
2022/08/18 05:01:39;;;;;;;45.65;36.35;;;;;;;17.04;100.00;101268.41;5104381;28;20039;-58
2022/08/18 05:04:05;;;;;;;47.63;37.05;;;;;;;17.07;100.00;101270.69;5103419;28;20046;-58
2022/08/18 05:06:31;;;;;;;47.22;37.35;;;;;;;17.05;100.00;101272.75;5107088;28;20023;-58
2022/08/18 05:09:00;;;;;;;49.28;38.17;;;;;;;17.07;100.00;101276.06;5106988;28;20023;-58
2022/08/18 05:11:28;;;;;;;54.05;38.63;;;;;;;16.97;100.00;101274.72;5106256;27;20905;-59
2022/08/18 05:13:56;;;;;;;58.20;37.92;;;;;;;16.93;100.00;101283.13;5102316;28;20039;-59
2022/08/18 05:16:23;;;;;;;49.45;36.75;;;;;;;17.01;100.00;101287.50;5095926;28;20384;-58
2022/08/18 05:18:49;;;;;;;51.17;37.90;;;;;;;17.03;100.00;101284.69;5102262;28;20096;-58
2022/08/18 05:21:15;;;;;;;48.63;37.20;;;;;;;17.05;100.00;101290.66;5104766;27;20032;-58
2022/08/18 05:23:42;;;;;;;52.65;37.30;;;;;;;17.13;100.00;101298.56;5106940;28;20024;-57
2022/08/18 05:26:08;;;;;;;44.20;35.20;;;;;;;17.15;100.00;101295.69;5089491;28;20060;-57
2022/08/18 05:28:36;;;;;;;44.50;35.53;;;;;;;17.16;100.00;101290.13;5099184;28;20071;-60
2022/08/18 05:31:07;;;;;;;45.45;35.33;;;;;;;17.15;100.00;101290.31;5102570;27;20480;-59
2022/08/18 05:33:32;;;;;;;44.33;35.08;;;;;;;17.18;100.00;101292.63;5097866;28;20058;-61
2022/08/18 05:36:03;;;;;;;45.30;35.08;;;;;;;17.11;100.00;101283.72;5107107;28;20520;-59
2022/08/18 05:38:42;;;;;;;43.60;34.85;;;;;;;17.15;100.00;101287.66;5105366;28;20022;-60
2022/08/18 05:41:18;;;;;;;45.55;35.80;;;;;;;17.16;100.00;101300.84;5099624;28;20040;-59
2022/08/18 05:43:45;;;;;;;48.03;35.30;;;;;;;17.16;100.00;101300.00;5105647;28;20837;-60
2022/08/18 05:46:11;;;;;;;43.45;35.92;;;;;;;17.16;100.00;101289.28;5101690;28;20071;-59
2022/08/18 05:48:38;;;;;;;44.22;35.53;;;;;;;17.23;100.00;101294.72;5105698;28;20065;-61
2022/08/18 05:51:15;;;;;;;44.28;34.45;;;;;;;17.29;100.00;101305.50;5108790;27;20096;-59
2022/08/18 05:56:45;;;;;;;43.08;34.75;;;;;;;17.24;100.00;101310.59;5100627;28;20059;-59
2022/08/18 05:59:17;;;;;;;43.25;34.72;;;;;;;17.25;100.00;101309.56;5091132;27;20043;-59
2022/08/18 06:01:50;;;;;;;44.33;34.85;;;;;;;17.29;100.00;101305.50;5105423;28;20562;-59
2022/08/18 06:04:29;;;;;;;;;;;;;;;17.41;100.00;101316.50;5093418;28;20032;-60
2022/08/18 06:06:56;;;;;;;44.83;34.97;;;;;;;17.36;100.00;101310.06;5101186;28;19926;-60
2022/08/18 06:09:35;;;;;;;48.15;36.40;;;;;;;17.36;100.00;101318.13;5100806;27;20031;-60
2022/08/18 06:12:12;;;;;;;46.35;35.13;;;;;;;17.36;100.00;101310.06;5097614;28;20055;-60
2022/08/18 06:14:38;;;;;;;50.83;36.05;;;;;;;17.27;100.00;101306.72;5105893;28;20487;-60
2022/08/18 06:17:19;;;;;;;46.03;35.58;;;;;;;17.34;100.00;101311.09;5106048;28;20035;-59
2022/08/18 06:19:57;;;;;;;47.67;35.30;;;;;;;17.38;100.00;101305.34;5102656;28;20410;-58
2022/08/18 06:22:32;;;;;;;44.40;34.67;;;;;;;17.37;100.00;101311.72;5100064;28;20024;-58
2022/08/18 06:25:14;;;;;;;43.35;33.50;;;;;;;17.41;100.00;101305.78;5098136;28;20032;-58
2022/08/18 06:27:54;;;;;;;45.60;35.63;;;;;;;17.55;100.00;101314.72;5091116;28;20032;-58
2022/08/18 06:30:41;;;;;;;40.58;33.17;;;;;;;17.54;100.00;101323.81;5107409;27;20039;-58
2022/08/18 06:33:21;;;;;;;43.10;33.90;;;;;;;17.51;100.00;101324.19;5097627;28;20032;-60
2022/08/18 06:36:01;;;;;;;44.58;35.70;;;;;;;17.56;100.00;101321.75;5104355;28;20538;-58
2022/08/18 06:38:51;;;;;;;45.08;35.80;;;;;;;17.66;100.00;101334.00;5105874;28;20118;-58
2022/08/18 06:41:31;;;;;;;40.67;33.22;;;;;;;17.59;100.00;101331.25;5102954;27;20361;-62
2022/08/18 06:44:08;;;;;;;42.95;33.40;;;;;;;17.64;100.00;101328.81;5086424;28;20039;-60
2022/08/18 06:46:47;;;;;;;42.53;34.05;;;;;;;17.65;100.00;101329.66;5098723;28;20043;-60
2022/08/18 06:49:27;;;;;;;45.72;34.22;;;;;;;17.66;100.00;101334.00;5084031;28;20526;-59
2022/08/18 06:51:52;;;;;;;39.40;32.60;;;;;;;17.70;100.00;101332.56;5095771;28;20042;-58
2022/08/18 06:54:17;;;;;;;42.05;33.25;;;;;;;17.74;100.00;101333.81;5097626;28;20036;-60
2022/08/18 06:56:42;;;;;;;39.70;31.38;;;;;;;17.81;100.00;101334.69;5099691;28;20036;-58
2022/08/18 06:59:17;;;;;;;41.30;31.33;;;;;;;17.85;100.00;101330.59;5098932;28;20107;-59
2022/08/18 07:01:44;;;;;;;42.30;32.50;;;;;;;17.88;100.00;101330.19;5085729;28;20347;-61
2022/08/18 07:04:35;;;;;;;42.47;31.67;;;;;;;17.88;100.00;101335.53;5079410;28;20494;-57
2022/08/18 07:07:38;;;;;;;41.75;32.83;;;;;;;17.98;100.00;101345.09;5105447;28;20028;-61
2022/08/18 07:10:29;;;;;;;37.95;30.63;;;;;;;18.00;100.00;101333.13;5093555;28;20522;-57
2022/08/18 07:13:15;;;;;;;45.92;32.17;;;;;;;18.06;100.00;101342.28;5090995;28;20096;-59
2022/08/18 07:15:42;;;;;;;38.53;31.65;;;;;;;18.01;100.00;101339.34;5103646;28;20041;-60
2022/08/18 07:18:09;;;;;;;34.95;29.75;;;;;;;18.05;100.00;101345.94;5094410;28;20464;-61
2022/08/18 07:20:48;;;;;;;40.60;30.40;;;;;;;18.04;100.00;101338.09;5108928;27;20100;-59
2022/08/18 07:23:29;;;;;;;35.55;29.17;;;;;;;18.18;100.00;101336.34;5104293;28;20039;-57
2022/08/18 07:26:02;;;;;;;34.17;28.45;;;;;;;18.27;100.00;101332.47;5098393;28;20123;-58
2022/08/18 07:28:32;;;;;;;;;;;;;;;18.49;100.00;101340.38;5098679;28;20031;-62
2022/08/18 07:31:38;;;;;;;36.28;28.23;;;;;;;18.50;100.00;101336.69;5095616;28;19938;-59
2022/08/18 07:34:11;;;;;;;33.55;27.50;;;;;;;18.51;100.00;101324.91;5097268;28;20035;-60
2022/08/18 07:36:52;;;;;;;;;;;;;;;18.68;100.00;101338.75;5098772;28;20035;-59
2022/08/18 07:39:26;;;;;;;36.38;30.02;;;;;;;18.69;100.00;101340.41;5097458;28;19915;-58
2022/08/18 07:42:10;;;;;;;38.35;30.02;;;;;;;18.63;100.00;101331.31;5096796;28;20484;-61
2022/08/18 07:44:50;;;;;;;31.55;27.80;;;;;;;18.62;100.00;101337.72;5103503;28;20031;-57
2022/08/18 07:47:27;;;;;;;31.42;27.17;;;;;;;18.46;100.00;101335.41;5097181;28;20069;-58
2022/08/18 07:49:57;;;;;;;31.17;26.42;;;;;;;18.53;99.92;101352.38;5092757;28;20040;-63
2022/08/18 07:52:35;;;;;;;32.22;25.73;;;;;;;18.59;99.87;101346.19;5099538;28;20031;-63
2022/08/18 07:55:27;;;;;;;30.17;24.25;;;;;;;18.73;98.79;101335.47;5103405;28;20039;-60
2022/08/18 07:58:23;;;;;;;28.05;23.83;;;;;;;18.91;99.28;101343.75;5083548;28;20388;-60
2022/08/18 08:00:57;;;;;;;28.90;24.05;;;;;;;18.98;98.37;101337.59;5096063;28;20136;-63
2022/08/18 08:03:42;;;;;;;30.25;24.95;;;;;;;19.13;98.57;101338.22;5104335;28;20028;-62
2022/08/18 08:06:11;;;;;;;30.75;25.70;;;;;;;19.30;98.30;101345.88;5105618;28;20041;-61
2022/08/18 08:09:00;;;;;;;31.35;24.98;;;;;;;19.42;97.94;101338.00;5108461;28;20035;-62
2022/08/18 08:11:46;;;;;;;28.60;23.90;;;;;;;19.36;96.79;101342.38;5093742;28;20088;-60
2022/08/18 08:14:24;;;;;;;27.58;22.75;;;;;;;19.19;95.54;101337.41;5103970;28;20028;-60
2022/08/18 08:16:55;;;;;;;28.58;22.52;;;;;;;19.21;96.06;101342.56;5101579;28;20031;-61
2022/08/18 08:19:52;;;;;;;24.27;20.83;;;;;;;19.31;95.49;101339.47;5105543;27;20037;-62
2022/08/18 08:22:45;;;;;;;28.20;22.05;;;;;;;19.28;96.86;101338.03;5103180;28;20047;-62
2022/08/18 08:25:21;;;;;;;27.65;22.92;;;;;;;19.27;95.13;101346.28;5101390;28;20064;-62
2022/08/18 08:27:52;;;;;;;26.40;22.00;;;;;;;19.22;94.94;101350.44;5108521;28;20088;-60
2022/08/18 08:30:22;;;;;;;24.75;21.35;;;;;;;19.22;95.68;101352.28;5102399;28;20019;-61
2022/08/18 08:33:02;;;;;;;25.63;20.67;;;;;;;19.40;96.10;101350.84;5105191;28;20114;-63
2022/08/18 08:35:51;;;;;;;25.73;21.92;;;;;;;19.58;96.29;101352.88;5095558;28;20944;-62
2022/08/18 08:38:25;;;;;;;25.52;21.02;;;;;;;19.70;94.29;101350.38;5106271;28;20055;-61
2022/08/18 08:41:02;;;;;;;25.77;21.75;;;;;;;19.72;93.33;101349.13;5098794;28;20596;-60
2022/08/18 08:43:39;;;;;;;24.80;20.38;;;;;;;19.84;94.03;101356.56;5097851;28;20370;-62
2022/08/18 08:46:18;;;;;;;24.63;20.50;;;;;;;19.83;93.79;101354.91;5094183;28;20075;-61
2022/08/18 08:48:50;;;;;;;22.85;19.17;;;;;;;19.74;92.99;101357.00;5105806;28;20035;-62
2022/08/18 08:51:28;;;;;;;24.67;19.50;;;;;;;19.68;93.12;101363.22;5101212;28;20495;-63
2022/08/18 08:54:02;;;;;;;25.42;19.17;;;;;;;19.64;92.15;101368.19;5106113;28;20035;-61
2022/08/18 08:56:32;;;;;;;26.35;19.02;;;;;;;19.60;91.57;101369.66;5102415;28;20039;-62
2022/08/18 08:59:02;;;;;;;21.58;18.30;;;;;;;19.60;92.32;101366.97;5096235;28;20027;-64
2022/08/18 09:01:45;;;;;;;28.70;19.83;;;;;;;19.60;92.34;101361.56;5098280;28;20031;-61
2022/08/18 09:04:34;;;;;;;20.90;18.13;;;;;;;19.69;92.07;101354.94;5106720;28;20038;-62
2022/08/18 09:07:19;;;;;;;25.83;19.48;;;;;;;19.90;92.60;101356.53;5102642;28;20027;-62
2022/08/18 09:10:19;;;;;;;23.20;19.10;;;;;;;20.17;91.30;101366.41;5103431;27;20036;-62
2022/08/18 09:12:45;;;;;;;23.58;18.98;;;;;;;20.25;89.63;101357.28;5099721;28;20034;-55
2022/08/18 09:15:15;;;;;;;20.48;17.63;;;;;;;20.19;88.05;101364.34;5101640;28;20032;-56
2022/08/18 09:17:59;;;;;;;22.85;18.08;;;;;;;20.12;88.90;101371.59;5096425;28;20031;-52
2022/08/18 09:20:31;;;;;;;20.55;17.38;;;;;;;20.09;88.45;101366.66;5109709;27;20118;-55
2022/08/18 09:23:09;;;;;;;22.38;17.63;;;;;;;20.11;89.59;101368.09;5106249;28;20027;-54
2022/08/18 09:25:38;;;;;;;23.15;18.65;;;;;;;20.31;90.23;101371.78;5101353;28;20028;-54
2022/08/18 09:28:40;;;;;;;21.63;16.95;;;;;;;20.40;87.03;101365.91;5101528;28;20042;-56
2022/08/18 09:31:06;;;;;;;20.02;16.13;;;;;;;20.67;88.33;101354.19;5073322;28;20500;-54
2022/08/18 09:33:37;;;;;;;18.42;14.20;;;;;;;20.75;82.55;101355.75;5099449;28;20035;-54
2022/08/18 09:36:26;;;;;;;17.58;14.25;;;;;;;20.77;83.09;101346.41;5100672;28;20040;-54
2022/08/18 09:42:00;;;;;;;18.73;13.88;;;;;;;20.83;84.88;101350.13;5101296;28;20212;-54
2022/08/18 09:44:52;;;;;;;18.55;14.18;;;;;;;20.78;85.01;101353.47;5096658;28;20046;-55
2022/08/18 09:47:20;;;;;;;18.65;14.48;;;;;;;20.68;85.38;101351.25;5100022;28;20058;-54
2022/08/18 09:49:52;;;;;;;21.25;14.68;;;;;;;20.63;84.31;101355.66;5105250;27;20038;-52
2022/08/18 09:52:20;;;;;;;18.17;13.83;;;;;;;20.60;84.55;101356.06;5099647;28;20543;-55
2022/08/18 09:54:57;;;;;;;19.92;14.43;;;;;;;20.61;85.21;101344.28;5105113;28;20766;-55
2022/08/18 09:57:34;;;;;;;15.98;12.30;;;;;;;20.60;84.88;101347.97;5104982;28;20039;-55
2022/08/18 10:00:02;;;;;;;12.10;9.60;;;;;;;20.67;81.51;101354.19;5111400;27;20441;-54
2022/08/18 10:02:27;;;;;;;12.55;10.32;;;;;;;20.85;83.03;101355.31;5100483;28;20031;-53
2022/08/18 10:05:14;;;;;;;13.20;9.90;;;;;;;21.05;82.97;101356.00;5103297;28;20496;-53
2022/08/18 10:07:42;;;;;;;15.15;10.82;;;;;;;21.29;82.17;101344.59;5102637;28;20907;-55
2022/08/18 10:10:08;;;;;;;14.05;9.02;;;;;;;21.43;76.99;101356.09;5111071;27;20683;-53
2022/08/18 10:13:00;;;;;;;10.52;8.27;;;;;;;21.58;78.81;101343.09;5104822;27;20038;-56
2022/08/18 10:15:33;;;;;;;11.30;9.30;;;;;;;21.67;75.76;101342.78;5097623;28;20031;-57
2022/08/18 10:18:28;;;;;;;9.95;8.77;;;;;;;21.76;76.16;101344.19;5094615;28;20039;-56
2022/08/18 10:21:08;;;;;;;11.40;8.80;;;;;;;21.90;75.18;101339.44;5057787;28;20043;-53
2022/08/18 10:23:55;;;;;;;12.50;8.88;;;;;;;22.09;74.60;101342.97;5095290;28;20028;-55
2022/08/18 10:26:29;;;;;;;10.20;8.63;;;;;;;22.26;73.88;101347.75;5104833;28;20050;-52
2022/08/18 10:29:21;;;;;;;11.95;8.80;;;;;;;22.35;76.09;101340.97;5101605;27;20050;-55
2022/08/18 10:31:55;;;;;;;16.38;11.35;;;;;;;22.39;75.79;101331.38;5069129;28;20127;-54
2022/08/18 10:34:46;;;;;;;16.00;11.80;;;;;;;22.38;74.87;101335.13;5097255;28;20038;-55
2022/08/18 10:37:30;;;;;;;13.88;11.80;;;;;;;22.15;75.16;101331.25;5103630;28;20085;-55
2022/08/18 10:40:00;;;;;;;13.70;10.32;;;;;;;21.91;74.94;101335.72;5101953;27;20035;-54
2022/08/18 10:42:51;;;;;;;12.60;10.70;;;;;;;21.83;76.13;101333.31;5097884;28;20570;-54
2022/08/18 10:45:36;;;;;;;14.35;9.93;;;;;;;21.72;76.24;101337.59;5098397;28;20980;-55
2022/08/18 10:48:19;;;;;;;12.68;10.25;;;;;;;21.60;75.98;101330.19;5097983;28;20461;-55
2022/08/18 10:50:51;;;;;;;13.98;11.45;;;;;;;21.50;75.30;101330.72;5094891;27;20036;-53
2022/08/18 10:53:45;;;;;;;16.10;12.45;;;;;;;21.50;76.35;101340.66;5094874;28;20098;-55
2022/08/18 10:56:13;;;;;;;14.35;11.57;;;;;;;21.37;78.34;101345.16;5099401;28;20035;-57
2022/08/18 10:58:56;;;;;;;15.13;11.80;;;;;;;21.37;79.56;101339.75;5099341;27;20027;-56
2022/08/18 11:01:45;;;;;;;17.13;11.68;;;;;;;21.35;77.79;101332.94;5103901;27;20042;-57
2022/08/18 11:04:21;;;;;;;16.83;12.40;;;;;;;21.38;78.20;101348.69;5103545;28;20047;-56
2022/08/18 11:06:52;;;;;;;14.55;11.80;;;;;;;21.36;76.65;101340.81;5102442;28;20126;-54
2022/08/18 11:09:26;;;;;;;14.38;12.13;;;;;;;21.42;76.75;101344.47;5098717;27;20099;-53
2022/08/18 11:11:53;;;;;;;15.88;11.90;;;;;;;21.55;75.86;101332.75;5098717;28;20040;-54
2022/08/18 11:14:37;;;;;;;14.57;11.02;;;;;;;21.69;74.63;101338.00;5104039;28;20825;-53
2022/08/18 11:17:08;;;;;;;13.55;11.68;;;;;;;21.68;73.48;101337.19;5101022;28;20587;-56
2022/08/18 11:19:39;;;;;;;14.00;10.88;;;;;;;21.83;74.48;101333.31;5099890;27;20033;-55
2022/08/18 11:22:20;;;;;;;12.45;10.35;;;;;;;22.16;75.56;101319.41;5111903;27;20131;-56
2022/08/18 11:24:46;;;;;;;12.30;10.10;;;;;;;22.49;73.40;101324.59;5098574;28;20035;-57
2022/08/18 11:27:25;;;;;;;11.90;10.27;;;;;;;22.59;72.45;101307.84;5103874;28;20031;-54
2022/08/18 11:29:52;;;;;;;13.23;10.80;;;;;;;22.58;70.17;101307.00;5100382;27;20127;-53
2022/08/18 11:32:35;;;;;;;13.75;9.77;;;;;;;22.60;71.98;101304.94;5097662;28;20072;-52
2022/08/18 11:35:12;;;;;;;12.82;10.07;;;;;;;22.54;70.72;101300.41;5101286;28;20085;-55
2022/08/18 11:37:40;;;;;;;15.13;10.43;;;;;;;22.53;71.88;101312.28;5087859;28;20016;-55
2022/08/18 11:40:23;;;;;;;15.23;11.02;;;;;;;22.42;70.77;101300.38;5099069;27;20027;-55
2022/08/18 11:42:58;;;;;;;;;;;;;;;22.54;72.84;101300.41;5096472;28;20057;-57
2022/08/18 11:45:27;;;;;;;10.77;9.60;;;;;;;22.56;69.26;101292.91;5102745;28;20452;-54